Amarillo, Texas
Current Conditions -  °F | °C
As of 5:04 AM on Thursday 23 Oct 2014 (Local Time) from KAMA Reporting Station
Haze Haze  
Wind Chill: 59°   Ceiling: 1100
Heat Index: 59°   Visibility: 6mi
Dew Point: 58°   Wind: 14mph
Humidity: 96%   Direction: 210°SSW
Pressure: 30.1"   Gusts: NA
Location:  35.21°N, 101.83°W
Report Text: KAMA 231004Z AUTO 21012KT 6SM BR BKN011 15/14 A3010 RMK AO2 T01500144
Loading
Personal Weather Stations






























Interactive Weather Map New forecast layout! Learn more

10-Day Weather Forecast

Advertisements
Track Severe Weather on mobile